Time;durP1;ratioP1;P1;durP2;ratioP2;P2;SDS_P1;SDS_P2;PMS_P1;PMS_P2;Temp;Humidity;BMP_temperature;BMP_pressure;BME280_temperature;BME280_humidity;BME280_pressure;Samples;Min_cycle;Max_cycle;Signal;HPM_P1;HPM_P2
2023/03/03 00:02:00;;;;;;;13.15;6.82;;;3.40;62.80;;;;;;4962519;28;20776;-77
2023/03/03 00:04:26;;;;;;;13.65;6.55;;;3.30;62.80;;;;;;4974705;28;20033;-76
2023/03/03 00:06:52;;;;;;;12.98;7.20;;;3.30;63.10;;;;;;4954493;28;20056;-77
2023/03/03 00:09:17;;;;;;;14.18;7.40;;;3.30;63.20;;;;;;4924122;28;20493;-77
2023/03/03 00:11:43;;;;;;;14.82;7.88;;;3.20;63.20;;;;;;4956439;28;20034;-76
2023/03/03 00:14:24;;;;;;;12.98;6.57;;;3.20;63.20;;;;;;4959011;28;20041;-77
2023/03/03 00:16:50;;;;;;;15.40;7.10;;;3.10;63.30;;;;;;4957922;28;20161;-76
2023/03/03 00:19:19;;;;;;;14.63;7.85;;;3.10;63.20;;;;;;4954669;28;20038;-76
2023/03/03 00:21:45;;;;;;;14.25;6.53;;;3.10;63.20;;;;;;4942716;28;20030;-77
2023/03/03 00:24:17;;;;;;;15.13;7.57;;;3.00;63.30;;;;;;4977009;28;20050;-76
2023/03/03 00:26:50;;;;;;;13.15;7.20;;;3.00;63.50;;;;;;4975968;28;20030;-77
2023/03/03 00:29:36;;;;;;;15.50;7.22;;;2.90;63.60;;;;;;4958909;28;20046;-76
2023/03/03 00:32:37;;;;;;;15.55;7.93;;;2.80;63.70;;;;;;4975634;28;20034;-75
2023/03/03 00:35:20;;;;;;;13.52;7.45;;;2.80;63.70;;;;;;4973906;28;20034;-77
2023/03/03 00:37:46;;;;;;;16.98;7.07;;;2.80;64.00;;;;;;4948029;28;20035;-76
2023/03/03 00:40:44;;;;;;;13.70;7.18;;;2.70;63.80;;;;;;4922176;28;20280;-77
2023/03/03 00:43:20;;;;;;;14.32;7.30;;;2.70;64.10;;;;;;4944660;28;20034;-76
2023/03/03 00:45:47;;;;;;;13.63;7.25;;;2.70;64.10;;;;;;4973177;28;20034;-76
2023/03/03 00:48:23;;;;;;;15.90;7.70;;;2.60;64.00;;;;;;4969388;28;20042;-76
2023/03/03 00:50:48;;;;;;;13.70;7.38;;;2.50;64.20;;;;;;4960436;28;20038;-76
2023/03/03 00:53:16;;;;;;;14.15;7.28;;;2.50;64.20;;;;;;4978347;28;20041;-76
2023/03/03 00:55:41;;;;;;;15.73;7.13;;;2.50;65.30;;;;;;4961186;28;20098;-76
2023/03/03 00:58:07;;;;;;;13.55;6.97;;;2.50;64.60;;;;;;4949972;28;20042;-77
2023/03/03 01:00:33;;;;;;;15.13;7.40;;;2.40;64.80;;;;;;4954996;28;20066;-76
2023/03/03 01:03:01;;;;;;;13.93;7.50;;;2.40;64.80;;;;;;4996338;28;20084;-76
2023/03/03 01:05:26;;;;;;;12.77;7.05;;;2.40;64.70;;;;;;4996815;28;20044;-76
2023/03/03 01:07:52;;;;;;;12.80;6.93;;;2.40;64.60;;;;;;4980838;28;20372;-76
2023/03/03 01:10:17;;;;;;;13.90;7.28;;;2.30;64.70;;;;;;4976071;28;20441;-76
2023/03/03 01:12:43;;;;;;;14.27;7.75;;;2.30;65.00;;;;;;4995659;28;20564;-76
2023/03/03 01:15:09;;;;;;;15.40;7.80;;;2.30;65.10;;;;;;4981808;28;20042;-76
2023/03/03 01:17:35;;;;;;;15.82;7.53;;;2.30;65.30;;;;;;4979262;28;20147;-76
2023/03/03 01:20:01;;;;;;;16.85;8.07;;;2.20;65.20;;;;;;4982137;28;20191;-76
2023/03/03 01:22:26;;;;;;;13.43;7.22;;;2.20;65.20;;;;;;4992010;28;20104;-76
2023/03/03 01:24:52;;;;;;;15.40;7.70;;;2.20;65.40;;;;;;4980967;28;20061;-76
2023/03/03 01:27:17;;;;;;;15.73;7.63;;;2.20;65.50;;;;;;4981691;28;20095;-76
2023/03/03 01:29:43;;;;;;;19.38;8.25;;;2.20;65.60;;;;;;4988567;28;20042;-76
2023/03/03 01:32:08;;;;;;;16.90;8.25;;;2.10;65.60;;;;;;4982203;28;20131;-76
2023/03/03 01:34:34;;;;;;;16.52;7.15;;;2.10;65.70;;;;;;4991668;28;20048;-76
2023/03/03 01:37:00;;;;;;;12.18;7.60;;;2.10;65.70;;;;;;4991786;28;20041;-77
2023/03/03 01:39:25;;;;;;;15.50;7.55;;;2.10;65.80;;;;;;4991093;28;20439;-76
2023/03/03 01:41:51;;;;;;;15.52;8.35;;;2.00;65.80;;;;;;4977086;28;20038;-76
2023/03/03 01:44:16;;;;;;;14.45;7.93;;;2.00;66.00;;;;;;4964166;28;20100;-76
2023/03/03 01:46:54;;;;;;;12.07;7.00;;;2.00;66.00;;;;;;4978083;28;20034;-76
2023/03/03 01:49:33;;;;;;;18.27;7.93;;;2.00;66.40;;;;;;4994263;28;20030;-76
2023/03/03 01:52:00;;;;;;;13.60;7.10;;;1.90;66.20;;;;;;4977610;28;20057;-77
2023/03/03 01:54:32;;;;;;;13.18;6.82;;;2.00;66.30;;;;;;4978794;28;20030;-75
2023/03/03 01:57:00;;;;;;;15.32;7.53;;;1.90;66.40;;;;;;4975222;28;20030;-77
2023/03/03 01:59:30;;;;;;;15.13;7.53;;;1.90;66.50;;;;;;4976996;28;20043;-76
2023/03/03 02:01:56;;;;;;;12.98;7.57;;;1.90;66.70;;;;;;4978684;28;20084;-76
2023/03/03 02:04:21;;;;;;;16.02;8.20;;;1.90;66.60;;;;;;4977927;28;20547;-76
2023/03/03 02:06:51;;;;;;;15.30;7.15;;;1.90;66.70;;;;;;4958547;28;20526;-77
2023/03/03 02:09:25;;;;;;;16.08;8.05;;;1.80;66.70;;;;;;4993064;28;20042;-77
2023/03/03 02:11:52;;;;;;;16.30;7.30;;;1.80;66.80;;;;;;4979337;28;20085;-76
2023/03/03 02:14:17;;;;;;;15.40;6.70;;;1.80;66.80;;;;;;4993476;28;20935;-77
2023/03/03 02:16:43;;;;;;;14.50;7.53;;;1.70;66.80;;;;;;4983230;28;20080;-77
2023/03/03 02:19:17;;;;;;;13.43;7.30;;;1.70;66.90;;;;;;4992451;28;20046;-77
2023/03/03 02:21:42;;;;;;;13.18;7.10;;;1.60;67.10;;;;;;4976570;28;20050;-77
2023/03/03 02:24:26;;;;;;;15.07;8.15;;;1.60;67.00;;;;;;4970090;28;20404;-76
2023/03/03 02:26:52;;;;;;;17.38;8.32;;;1.60;67.30;;;;;;4977935;28;20033;-77
2023/03/03 02:29:17;;;;;;;13.02;7.57;;;1.60;67.10;;;;;;4962678;28;20100;-76
2023/03/03 02:31:43;;;;;;;12.57;7.35;;;1.50;67.10;;;;;;4996788;28;20038;-76
2023/03/03 02:34:09;;;;;;;17.35;8.65;;;1.40;67.10;;;;;;4994435;28;20068;-77
2023/03/03 02:36:36;;;;;;;15.57;7.47;;;1.40;67.30;;;;;;4966362;28;20058;-76
2023/03/03 02:39:29;;;;;;;13.00;6.28;;;1.40;67.50;;;;;;4978378;28;20073;-76
2023/03/03 02:41:59;;;;;;;13.70;7.47;;;1.40;68.00;;;;;;4992042;28;20524;-76
2023/03/03 02:44:27;;;;;;;12.93;7.32;;;1.40;67.70;;;;;;4976959;28;20033;-77
2023/03/03 02:46:53;;;;;;;14.55;6.95;;;1.40;67.60;;;;;;4983105;28;20038;-76
2023/03/03 02:49:21;;;;;;;19.42;8.40;;;1.30;67.60;;;;;;4977103;28;20670;-77
2023/03/03 02:51:46;;;;;;;13.30;7.47;;;1.30;67.70;;;;;;4959847;28;20034;-76
2023/03/03 02:54:12;;;;;;;14.70;7.45;;;1.30;67.70;;;;;;4989880;28;20026;-77
2023/03/03 02:56:38;;;;;;;13.45;7.53;;;1.20;67.70;;;;;;4978869;28;20037;-77
2023/03/03 02:59:04;;;;;;;16.42;7.95;;;1.20;67.90;;;;;;4979198;28;20041;-76
2023/03/03 03:01:30;;;;;;;15.73;8.23;;;1.20;68.10;;;;;;4939427;28;20054;-76
2023/03/03 03:03:56;;;;;;;14.02;8.07;;;1.20;68.90;;;;;;4990906;28;20741;-76
2023/03/03 03:06:22;;;;;;;16.08;7.63;;;1.20;68.10;;;;;;4981330;28;20042;-76
2023/03/03 03:08:47;;;;;;;11.73;6.55;;;1.10;68.00;;;;;;4963623;28;20666;-76
2023/03/03 03:11:13;;;;;;;14.10;7.97;;;1.10;68.10;;;;;;4950171;28;20047;-76
2023/03/03 03:13:38;;;;;;;15.60;8.05;;;1.00;68.10;;;;;;4975073;28;20069;-76
2023/03/03 03:16:04;;;;;;;14.35;7.30;;;1.00;68.30;;;;;;4964056;28;20144;-75
2023/03/03 03:18:30;;;;;;;14.07;7.57;;;1.00;68.40;;;;;;4948438;28;20117;-75
2023/03/03 03:20:55;;;;;;;15.25;7.38;;;1.10;68.50;;;;;;4960113;28;20512;-75
2023/03/03 03:23:21;;;;;;;14.20;7.32;;;1.10;68.70;;;;;;4972020;28;20172;-76
2023/03/03 03:25:47;;;;;;;14.15;6.95;;;1.00;68.60;;;;;;4961513;28;20462;-76
2023/03/03 03:28:15;;;;;;;13.00;6.88;;;1.10;68.80;;;;;;4958290;28;20117;-76
2023/03/03 03:30:43;;;;;;;15.93;8.10;;;1.00;68.80;;;;;;4967515;28;20088;-76
2023/03/03 03:33:09;;;;;;;17.85;7.68;;;1.00;68.70;;;;;;4950596;28;20034;-76
2023/03/03 03:35:34;;;;;;;15.77;8.38;;;0.90;68.60;;;;;;4959184;28;20112;-76
2023/03/03 03:38:00;;;;;;;15.75;8.02;;;0.90;68.70;;;;;;4960967;28;20034;-76
2023/03/03 03:40:25;;;;;;;14.07;7.60;;;0.90;68.70;;;;;;4954535;28;20073;-76
2023/03/03 03:42:52;;;;;;;15.40;7.30;;;0.80;68.70;;;;;;4941354;28;20061;-76
2023/03/03 03:45:17;;;;;;;14.75;7.90;;;0.80;68.80;;;;;;4951732;28;20120;-77
2023/03/03 03:47:43;;;;;;;13.55;7.65;;;0.80;69.00;;;;;;4977519;28;20129;-76
2023/03/03 03:50:09;;;;;;;13.45;7.20;;;0.80;69.00;;;;;;4948761;28;20049;-76
2023/03/03 03:52:34;;;;;;;14.95;8.00;;;0.70;69.10;;;;;;4972781;28;20039;-76
2023/03/03 03:55:00;;;;;;;12.52;7.47;;;0.70;69.10;;;;;;4973181;28;20052;-76
2023/03/03 03:57:25;;;;;;;15.00;7.43;;;0.70;69.10;;;;;;4965888;28;20116;-74
2023/03/03 03:59:51;;;;;;;16.58;7.55;;;0.70;69.20;;;;;;4977085;28;20052;-76
2023/03/03 04:02:16;;;;;;;17.88;9.05;;;0.70;69.30;;;;;;4979416;28;20081;-76
2023/03/03 04:04:42;;;;;;;15.20;7.82;;;0.70;69.40;;;;;;4979678;28;20501;-76
2023/03/03 04:07:08;;;;;;;15.10;7.63;;;0.60;69.40;;;;;;4982609;28;20763;-76
2023/03/03 04:09:33;;;;;;;14.60;8.20;;;0.60;69.40;;;;;;4994167;28;20036;-76
2023/03/03 04:11:59;;;;;;;15.48;8.35;;;0.60;69.40;;;;;;4995561;28;20156;-77
2023/03/03 04:14:24;;;;;;;17.98;7.72;;;0.60;69.50;;;;;;4979005;28;20172;-76
2023/03/03 04:16:50;;;;;;;16.08;6.97;;;0.60;69.60;;;;;;4991272;28;20400;-76
2023/03/03 04:19:15;;;;;;;13.98;8.02;;;0.60;69.70;;;;;;4995004;28;20065;-78
2023/03/03 04:21:41;;;;;;;13.80;7.55;;;0.60;69.80;;;;;;4978297;28;20125;-77
2023/03/03 04:24:07;;;;;;;14.20;8.25;;;0.60;69.90;;;;;;4983425;28;20056;-78
2023/03/03 04:26:32;;;;;;;16.60;8.05;;;0.60;70.00;;;;;;4994873;28;20034;-76
2023/03/03 04:28:58;;;;;;;16.02;7.82;;;0.60;70.00;;;;;;4981182;28;20037;-77
2023/03/03 04:31:24;;;;;;;14.82;7.25;;;0.60;70.10;;;;;;4996193;28;20034;-78
2023/03/03 04:33:50;;;;;;;20.15;9.30;;;0.60;70.10;;;;;;4996863;28;20038;-78
2023/03/03 04:36:16;;;;;;;14.13;8.18;;;0.60;70.10;;;;;;4986351;28;20086;-78
2023/03/03 04:38:42;;;;;;;17.77;7.97;;;0.50;70.10;;;;;;4995451;28;20038;-78
2023/03/03 04:41:07;;;;;;;19.38;8.85;;;0.50;70.00;;;;;;4981248;28;20524;-78
2023/03/03 04:43:33;;;;;;;18.63;9.05;;;0.50;70.20;;;;;;4975325;28;20037;-78
2023/03/03 04:45:58;;;;;;;17.08;8.40;;;0.40;70.20;;;;;;4980480;28;20582;-77
2023/03/03 04:48:24;;;;;;;19.88;8.30;;;0.40;70.20;;;;;;4974753;28;20040;-77
2023/03/03 04:50:49;;;;;;;14.88;7.95;;;0.40;70.30;;;;;;4993542;28;20062;-77
2023/03/03 04:53:15;;;;;;;14.15;7.63;;;0.40;70.40;;;;;;4997461;28;20050;-78
2023/03/03 04:55:40;;;;;;;18.88;9.23;;;0.40;70.40;;;;;;4996094;28;20052;-77
2023/03/03 04:58:06;;;;;;;17.33;8.02;;;0.30;70.50;;;;;;4983496;28;20037;-77
2023/03/03 05:04:07;;;;;;;17.92;8.77;;;0.30;70.90;;;;;;4964689;28;20104;-78
2023/03/03 05:06:32;;;;;;;16.40;8.50;;;0.30;70.50;;;;;;4973018;28;20035;-77
2023/03/03 05:08:58;;;;;;;17.38;8.38;;;0.20;70.50;;;;;;4977879;28;20038;-77
2023/03/03 05:11:23;;;;;;;18.02;8.90;;;0.20;70.60;;;;;;4974211;28;20609;-76
2023/03/03 05:13:49;;;;;;;17.88;8.23;;;0.20;70.80;;;;;;4975052;28;20448;-76
2023/03/03 05:16:15;;;;;;;18.05;8.98;;;0.20;70.80;;;;;;4953910;28;20042;-78
2023/03/03 05:18:40;;;;;;;18.27;9.32;;;0.10;70.90;;;;;;4961000;28;20543;-77
2023/03/03 05:21:06;;;;;;;20.92;9.88;;;0.10;70.90;;;;;;4961105;28;20093;-78
2023/03/03 05:23:31;;;;;;;13.63;7.45;;;0.10;71.00;;;;;;4957731;28;20125;-77
2023/03/03 05:25:57;;;;;;;18.50;9.10;;;0.10;71.00;;;;;;4959114;28;20579;-77
2023/03/03 05:28:22;;;;;;;17.75;9.05;;;0.10;71.20;;;;;;4961827;28;20043;-75
2023/03/03 05:30:48;;;;;;;14.65;8.63;;;0.10;71.20;;;;;;4976718;28;20115;-77
2023/03/03 05:33:14;;;;;;;21.08;10.18;;;0.10;71.40;;;;;;4980203;28;20119;-77
2023/03/03 05:35:40;;;;;;;22.13;10.02;;;0.10;71.40;;;;;;4937059;28;20310;-77
2023/03/03 05:38:05;;;;;;;21.67;10.10;;;0.10;71.40;;;;;;4951690;28;20750;-76
2023/03/03 05:40:31;;;;;;;16.88;9.02;;;0.00;71.30;;;;;;4973473;28;20151;-76
2023/03/03 05:42:57;;;;;;;21.10;11.13;;;0.00;71.30;;;;;;4958721;28;20041;-77
2023/03/03 05:45:23;;;;;;;25.08;11.90;;;0.00;71.50;;;;;;4976663;28;20125;-78
2023/03/03 05:47:49;;;;;;;23.25;10.13;;;0.00;71.50;;;;;;4961981;28;20038;-76
2023/03/03 05:50:15;;;;;;;17.92;9.30;;;-0.10;71.30;;;;;;4975196;28;20034;-75
2023/03/03 05:52:41;;;;;;;23.70;11.02;;;-0.10;71.40;;;;;;4959005;28;20069;-76
2023/03/03 05:55:06;;;;;;;18.48;10.13;;;-0.20;71.40;;;;;;4962256;28;20034;-76
2023/03/03 05:57:32;;;;;;;23.58;10.50;;;-0.20;71.40;;;;;;4954793;28;20074;-77
2023/03/03 05:59:57;;;;;;;20.42;10.82;;;-0.20;71.60;;;;;;4960485;28;20369;-77
2023/03/03 06:02:23;;;;;;;24.38;10.93;;;-0.30;71.60;;;;;;4943779;28;20693;-77
2023/03/03 06:04:51;;;;;;;19.33;9.98;;;-0.30;71.60;;;;;;4978827;28;21147;-76
2023/03/03 06:07:16;;;;;;;23.27;9.82;;;-0.30;71.70;;;;;;4963578;28;20113;-77
2023/03/03 06:09:42;;;;;;;22.58;10.75;;;-0.30;71.80;;;;;;4976425;28;20161;-77
2023/03/03 06:12:07;;;;;;;24.10;11.85;;;-0.30;71.90;;;;;;4991593;28;20034;-77
2023/03/03 06:14:33;;;;;;;21.15;10.32;;;-0.30;72.00;;;;;;4978420;28;20496;-76
2023/03/03 06:16:58;;;;;;;23.08;11.50;;;-0.30;72.00;;;;;;4973879;28;20042;-76
2023/03/03 06:19:24;;;;;;;23.65;10.80;;;-0.30;72.00;;;;;;4949132;28;20033;-77
2023/03/03 06:21:49;;;;;;;22.08;9.80;;;-0.30;72.10;;;;;;4964569;28;20040;-76
2023/03/03 06:24:15;;;;;;;20.48;10.18;;;-0.40;72.00;;;;;;4962103;28;20457;-78
2023/03/03 06:26:41;;;;;;;21.20;10.88;;;-0.40;72.10;;;;;;4976858;28;20527;-77
2023/03/03 06:29:06;;;;;;;18.23;9.85;;;-0.40;72.20;;;;;;4992682;28;20110;-77
2023/03/03 06:31:32;;;;;;;20.40;10.35;;;-0.40;72.30;;;;;;4990823;28;20027;-77
2023/03/03 06:33:58;;;;;;;19.17;9.52;;;-0.40;72.40;;;;;;4980788;28;20475;-77
2023/03/03 06:36:24;;;;;;;20.48;9.93;;;-0.40;72.40;;;;;;4981311;28;20065;-77
2023/03/03 06:38:50;;;;;;;25.88;12.43;;;-0.40;72.50;;;;;;4998470;28;20042;-76
2023/03/03 06:41:15;;;;;;;21.48;11.95;;;-0.40;72.60;;;;;;4985601;28;20033;-77
2023/03/03 06:43:41;;;;;;;24.50;13.35;;;-0.30;72.70;;;;;;4997475;28;20423;-77
2023/03/03 06:46:06;;;;;;;25.02;12.07;;;-0.30;72.70;;;;;;4978598;28;20523;-77
2023/03/03 06:48:32;;;;;;;22.85;11.95;;;-0.30;72.80;;;;;;4994594;28;20042;-77
2023/03/03 06:50:59;;;;;;;24.00;11.20;;;-0.20;72.80;;;;;;4979448;28;20038;-76
2023/03/03 06:53:24;;;;;;;18.77;10.32;;;-0.20;72.80;;;;;;4994536;28;20034;-76
2023/03/03 06:55:50;;;;;;;17.73;10.50;;;-0.20;72.80;;;;;;4989391;28;20041;-78
2023/03/03 06:58:17;;;;;;;26.15;12.32;;;-0.10;72.90;;;;;;4978839;28;20038;-78
2023/03/03 07:00:44;;;;;;;23.27;11.60;;;-0.10;72.90;;;;;;4992008;28;20424;-75
2023/03/03 07:03:15;;;;;;;27.15;14.45;;;0.00;73.10;;;;;;4981984;28;20672;-77
2023/03/03 07:05:41;;;;;;;25.60;13.27;;;0.00;73.10;;;;;;4995020;28;20081;-77
2023/03/03 07:08:15;;;;;;;28.75;14.98;;;0.00;73.10;;;;;;4994108;28;20125;-78
2023/03/03 07:10:40;;;;;;;31.67;15.63;;;0.10;73.20;;;;;;4959835;28;20032;-77
2023/03/03 07:13:23;;;;;;;37.13;18.35;;;0.20;73.20;;;;;;4983813;28;20034;-77
2023/03/03 07:15:49;;;;;;;29.30;14.23;;;0.20;73.50;;;;;;4976603;28;20854;-77
2023/03/03 07:18:24;;;;;;;31.27;15.70;;;0.30;73.20;;;;;;4990912;28;20045;-77
2023/03/03 07:20:49;;;;;;;30.55;15.10;;;0.40;73.50;;;;;;4993244;28;20042;-76
2023/03/03 07:23:41;;;;;;;34.47;16.80;;;0.40;73.20;;;;;;4976634;28;20898;-78
2023/03/03 07:26:09;;;;;;;41.08;19.88;;;0.50;73.50;;;;;;4977711;28;20525;-77
2023/03/03 07:28:34;;;;;;;39.40;18.33;;;0.60;73.30;;;;;;4966051;28;20144;-76
2023/03/03 07:31:00;;;;;;;35.95;17.40;;;0.70;73.30;;;;;;4992559;28;20473;-77
2023/03/03 07:33:26;;;;;;;37.20;16.85;;;0.70;74.20;;;;;;4979409;28;20034;-77
2023/03/03 07:35:56;;;;;;;38.60;17.27;;;0.80;73.50;;;;;;4966829;28;20096;-76
2023/03/03 07:38:44;;;;;;;33.72;15.90;;;0.90;73.60;;;;;;4994271;28;20038;-77
2023/03/03 07:41:13;;;;;;;35.47;16.65;;;1.00;73.90;;;;;;4994149;28;20042;-77
2023/03/03 07:43:42;;;;;;;31.52;14.52;;;1.10;73.60;;;;;;4981563;28;20054;-77
2023/03/03 07:46:35;;;;;;;34.13;16.88;;;1.20;73.60;;;;;;4969760;28;20073;-77
2023/03/03 07:49:01;;;;;;;31.00;15.73;;;1.30;73.90;;;;;;4995270;28;20621;-77
2023/03/03 07:51:28;;;;;;;34.63;14.93;;;1.50;73.60;;;;;;4993344;28;20034;-77
2023/03/03 07:54:16;;;;;;;29.50;14.73;;;1.60;73.70;;;;;;4970553;28;20065;-77
2023/03/03 07:56:42;;;;;;;34.40;16.38;;;1.70;74.20;;;;;;4990984;28;20535;-77
2023/03/03 07:59:22;;;;;;;34.05;15.98;;;1.80;73.70;;;;;;4995574;28;20042;-77
2023/03/03 08:01:57;;;;;;;33.95;16.08;;;2.00;74.10;;;;;;4982988;28;20113;-76
2023/03/03 08:04:42;;;;;;;27.17;13.95;;;2.10;73.70;;;;;;4954749;28;20508;-77
2023/03/03 08:07:11;;;;;;;31.67;15.07;;;2.20;74.00;;;;;;4925339;28;20065;-78
2023/03/03 08:09:37;;;;;;;30.73;14.80;;;2.40;73.70;;;;;;4937611;28;20038;-77
2023/03/03 08:12:06;;;;;;;27.58;14.02;;;2.50;73.50;;;;;;4961319;28;20026;-77
2023/03/03 08:14:35;;;;;;;28.58;14.35;;;2.60;73.60;;;;;;4966552;28;20560;-76
2023/03/03 08:17:01;;;;;;;32.10;14.05;;;2.70;73.60;;;;;;4944479;28;20066;-77
2023/03/03 08:19:27;;;;;;;32.08;14.88;;;2.90;73.50;;;;;;4963575;28;21016;-77
2023/03/03 08:21:55;;;;;;;30.80;14.13;;;3.00;73.50;;;;;;4974835;28;20042;-77
2023/03/03 08:24:21;;;;;;;29.00;14.98;;;3.20;73.50;;;;;;4945977;28;20041;-77
2023/03/03 08:26:46;;;;;;;32.75;15.30;;;3.30;73.30;;;;;;4957177;28;20038;-77
2023/03/03 08:29:12;;;;;;;23.55;13.05;;;3.40;73.20;;;;;;4978137;28;20455;-77
2023/03/03 08:31:37;;;;;;;29.10;14.38;;;3.60;73.20;;;;;;4981984;28;20034;-77
2023/03/03 08:34:03;;;;;;;28.35;13.98;;;3.70;73.00;;;;;;4947307;28;20031;-77
2023/03/03 08:36:28;;;;;;;27.63;14.02;;;3.90;73.10;;;;;;4963707;28;20054;-77
2023/03/03 08:38:54;;;;;;;31.08;14.50;;;4.00;72.80;;;;;;4962796;28;20038;-77
2023/03/03 08:41:20;;;;;;;28.48;14.25;;;4.20;72.80;;;;;;4959730;28;20046;-77
2023/03/03 08:43:45;;;;;;;26.90;14.35;;;4.30;73.50;;;;;;4948757;28;20706;-77
2023/03/03 08:46:11;;;;;;;27.70;14.50;;;4.40;72.60;;;;;;4965805;28;20451;-78
2023/03/03 08:48:36;;;;;;;26.60;13.10;;;4.60;72.40;;;;;;4959027;28;20069;-77
2023/03/03 08:51:02;;;;;;;29.35;12.85;;;4.70;72.30;;;;;;4973011;28;20034;-78
2023/03/03 08:53:28;;;;;;;28.58;13.68;;;4.90;72.20;;;;;;4956330;28;20067;-78
2023/03/03 08:55:53;;;;;;;28.17;14.02;;;5.10;72.00;;;;;;4975776;28;20050;-78
2023/03/03 08:58:20;;;;;;;30.08;14.98;;;5.20;71.70;;;;;;4939138;28;20043;-78
2023/03/03 09:00:45;;;;;;;27.10;13.90;;;5.30;71.40;;;;;;4946936;28;20046;-77
2023/03/03 09:03:11;;;;;;;27.90;14.60;;;5.40;71.10;;;;;;4979853;28;20166;-77
2023/03/03 09:05:37;;;;;;;55.88;33.17;;;5.50;71.70;;;;;;4991068;28;20125;-78
2023/03/03 09:08:02;;;;;;;29.42;16.90;;;5.70;70.80;;;;;;4986917;28;21357;-77
2023/03/03 09:10:29;;;;;;;25.73;14.50;;;5.80;70.60;;;;;;4963644;28;20504;-77
2023/03/03 09:13:00;;;;;;;29.77;13.63;;;6.00;70.50;;;;;;4994358;28;20049;-78
2023/03/03 09:15:27;;;;;;;25.90;13.70;;;6.10;70.40;;;;;;4997900;28;20034;-77
2023/03/03 09:17:53;;;;;;;29.10;16.17;;;6.30;70.40;;;;;;4980977;28;20053;-77
2023/03/03 09:20:34;;;;;;;36.80;21.92;;;6.50;70.20;;;;;;4982731;28;20046;-77
2023/03/03 09:23:23;;;;;;;26.35;14.27;;;6.70;69.90;;;;;;4974806;28;20037;-77
2023/03/03 09:25:49;;;;;;;32.08;16.65;;;6.80;69.40;;;;;;4959090;28;20074;-77
2023/03/03 09:28:26;;;;;;;23.88;13.55;;;6.90;69.40;;;;;;4968468;28;20044;-77
2023/03/03 09:30:55;;;;;;;30.13;14.25;;;7.20;69.30;;;;;;4982306;28;20092;-78
2023/03/03 09:33:24;;;;;;;24.83;13.43;;;7.30;69.10;;;;;;4989981;28;20034;-78
2023/03/03 09:35:52;;;;;;;25.75;13.48;;;7.50;68.80;;;;;;5001556;28;20076;-78
2023/03/03 09:38:35;;;;;;;23.80;13.23;;;7.70;68.70;;;;;;4998454;28;20497;-78
2023/03/03 09:41:08;;;;;;;24.55;12.68;;;7.90;68.40;;;;;;4995374;28;21388;-78
2023/03/03 09:43:57;;;;;;;25.67;12.90;;;8.10;68.30;;;;;;4996241;28;20049;-77
2023/03/03 09:46:43;;;;;;;26.92;13.82;;;8.30;68.00;;;;;;4979131;28;20045;-78
2023/03/03 09:49:21;;;;;;;28.33;13.93;;;8.50;67.60;;;;;;4985276;28;20037;-78
2023/03/03 09:52:15;;;;;;;32.25;14.15;;;8.60;67.10;;;;;;4979540;28;20512;-78
2023/03/03 09:55:00;;;;;;;29.45;14.02;;;8.80;66.80;;;;;;4998297;28;20042;-77
2023/03/03 09:57:58;;;;;;;26.30;13.63;;;9.00;66.70;;;;;;4995100;28;20026;-77
2023/03/03 10:00:30;;;;;;;22.95;12.10;;;9.20;66.00;;;;;;4998424;28;20077;-78
2023/03/03 10:03:17;;;;;;;22.65;12.32;;;9.40;65.80;;;;;;4990543;28;20662;-78
2023/03/03 10:05:55;;;;;;;24.63;12.90;;;9.50;65.20;;;;;;4977632;28;20046;-78
2023/03/03 10:08:45;;;;;;;24.55;12.07;;;9.60;65.10;;;;;;4978079;28;20782;-77
2023/03/03 10:11:22;;;;;;;24.55;12.02;;;9.80;65.20;;;;;;4973587;28;20167;-78
2023/03/03 10:14:04;;;;;;;25.70;13.88;;;10.00;64.50;;;;;;4967535;28;20054;-78
2023/03/03 10:16:41;;;;;;;;;;;10.20;63.90;;;;;;4960573;28;20038;-78
2023/03/03 10:19:27;;;;;;;22.00;11.25;;;10.30;64.30;;;;;;4981526;28;19917;-78
2023/03/03 10:22:23;;;;;;;23.23;12.02;;;10.50;64.10;;;;;;4952996;28;20057;-77
2023/03/03 10:25:14;;;;;;;19.45;10.90;;;10.70;63.10;;;;;;4961340;28;20035;-77
2023/03/03 10:27:56;;;;;;;22.67;10.82;;;10.90;63.20;;;;;;4954399;28;20046;-77
2023/03/03 10:30:52;;;;;;;21.48;10.85;;;11.10;63.10;;;;;;4945352;28;20545;-77
2023/03/03 10:33:36;;;;;;;24.08;12.48;;;11.30;62.10;;;;;;4951031;28;20037;-78
2023/03/03 10:36:25;;;;;;;20.27;10.73;;;11.40;62.10;;;;;;4972590;28;20554;-77
2023/03/03 10:38:58;;;;;;;22.83;10.77;;;11.60;61.50;;;;;;4975179;28;20027;-76
2023/03/03 10:41:43;;;;;;;22.90;11.98;;;11.70;61.30;;;;;;4953721;28;20034;-79
2023/03/03 10:44:38;;;;;;;21.08;11.07;;;11.80;60.00;;;;;;4929549;28;20073;-78
2023/03/03 10:47:07;;;;;;;15.95;9.20;;;11.90;59.90;;;;;;4937797;28;20058;-78
2023/03/03 10:50:07;;;;;;;18.67;10.23;;;12.00;60.50;;;;;;4980103;28;20038;-77
2023/03/03 10:52:55;;;;;;;17.55;10.40;;;12.30;60.00;;;;;;4968472;28;20091;-78
2023/03/03 10:55:32;;;;;;;21.00;11.15;;;12.50;60.00;;;;;;4963118;28;20041;-77
2023/03/03 10:58:20;;;;;;;18.08;9.80;;;12.60;59.20;;;;;;4987092;28;20097;-77
2023/03/03 11:00:50;;;;;;;19.48;10.35;;;12.70;58.90;;;;;;4959153;28;20057;-78
2023/03/03 11:03:35;;;;;;;18.02;10.80;;;12.80;59.30;;;;;;4953411;28;20038;-79
2023/03/03 11:06:05;;;;;;;16.63;9.35;;;13.10;58.50;;;;;;4959294;28;20160;-78
2023/03/03 11:08:52;;;;;;;15.85;9.07;;;13.20;58.60;;;;;;4964246;28;21305;-78
2023/03/03 11:11:36;;;;;;;14.65;8.45;;;13.40;58.60;;;;;;4980535;28;20038;-78
2023/03/03 11:14:20;;;;;;;14.77;8.82;;;13.60;58.20;;;;;;4969349;28;20088;-79
2023/03/03 11:16:57;;;;;;;15.95;9.80;;;13.80;57.90;;;;;;4947383;28;20077;-78
2023/03/03 11:19:25;;;;;;;15.63;8.13;;;13.90;57.20;;;;;;4959678;28;20974;-79
2023/03/03 11:22:17;;;;;;;15.25;9.32;;;14.00;57.20;;;;;;4976186;28;20080;-78
2023/03/03 11:25:20;;;;;;;16.13;8.48;;;14.30;56.80;;;;;;4962599;28;20039;-78
2023/03/03 11:28:05;;;;;;;13.77;8.32;;;14.40;56.40;;;;;;4951439;28;20047;-79
2023/03/03 11:30:53;;;;;;;13.27;7.97;;;14.60;56.10;;;;;;4974667;28;20053;-77
2023/03/03 11:33:24;;;;;;;12.95;7.75;;;14.80;55.90;;;;;;4961030;28;20038;-79
2023/03/03 11:36:16;;;;;;;15.48;9.30;;;14.90;56.10;;;;;;4943581;28;20682;-80
2023/03/03 11:39:01;;;;;;;15.50;9.52;;;15.10;55.20;;;;;;4974700;28;20043;-79
2023/03/03 11:41:35;;;;;;;14.93;8.70;;;15.40;54.50;;;;;;4974338;28;20084;-79
2023/03/03 11:44:21;;;;;;;15.32;8.38;;;15.50;55.00;;;;;;4961366;28;20204;-78
2023/03/03 11:46:57;;;;;;;13.10;8.30;;;15.60;54.60;;;;;;4972647;28;20043;-78
2023/03/03 11:49:37;;;;;;;14.02;7.88;;;15.70;54.20;;;;;;4962951;28;20389;-79
2023/03/03 11:52:27;;;;;;;15.20;8.55;;;15.90;53.80;;;;;;4961373;28;20034;-77
2023/03/03 11:55:05;;;;;;;13.63;8.30;;;16.10;53.40;;;;;;4973476;28;20420;-78
2023/03/03 11:57:45;;;;;;;14.13;8.00;;;16.20;53.80;;;;;;4978535;28;20658;-78
2023/03/03 12:00:17;;;;;;;15.55;8.60;;;16.40;52.80;;;;;;4963872;28;20137;-78
2023/03/03 12:02:54;;;;;;;10.85;7.47;;;16.60;53.00;;;;;;4979005;28;20060;-79
2023/03/03 12:05:32;;;;;;;13.50;8.05;;;16.70;52.10;;;;;;5004176;28;20479;-79
2023/03/03 12:08:03;;;;;;;12.18;7.82;;;16.80;51.20;;;;;;5000686;28;20409;-78
2023/03/03 12:10:48;;;;;;;13.13;7.30;;;16.90;51.70;;;;;;4997546;28;20046;-78
2023/03/03 12:13:31;;;;;;;11.90;7.28;;;16.90;50.70;;;;;;4986262;28;20137;-78
2023/03/03 12:16:24;;;;;;;15.63;8.18;;;17.00;51.10;;;;;;4998967;28;20095;-79
2023/03/03 12:19:05;;;;;;;11.30;6.78;;;17.10;49.70;;;;;;4997032;28;20132;-79
2023/03/03 12:21:33;;;;;;;12.68;6.93;;;17.30;50.70;;;;;;5002979;28;20754;-78
2023/03/03 12:24:11;;;;;;;11.77;7.22;;;17.40;50.30;;;;;;4986683;28;20034;-79
2023/03/03 12:26:42;;;;;;;12.07;7.38;;;17.50;49.10;;;;;;5001258;28;20044;-78
2023/03/03 12:29:31;;;;;;;11.63;7.72;;;17.60;49.90;;;;;;5002977;28;20060;-79
2023/03/03 12:32:04;;;;;;;10.63;6.63;;;17.80;48.70;;;;;;4985143;28;20077;-79
2023/03/03 12:34:51;;;;;;;11.10;6.53;;;17.90;49.50;;;;;;4990179;28;20046;-77
2023/03/03 12:37:27;;;;;;;11.98;7.43;;;18.10;48.10;;;;;;4981721;28;20040;-78
2023/03/03 12:40:06;;;;;;;10.80;6.72;;;18.10;48.60;;;;;;4997603;28;20049;-79
2023/03/03 12:42:49;;;;;;;9.80;6.38;;;18.30;48.00;;;;;;4982806;28;20033;-78
2023/03/03 12:45:30;;;;;;;10.43;6.28;;;18.40;47.90;;;;;;5001823;28;20041;-79
2023/03/03 12:48:29;;;;;;;11.32;6.65;;;18.50;47.60;;;;;;4997659;28;20034;-79
2023/03/03 12:51:21;;;;;;;11.85;7.38;;;18.60;47.70;;;;;;4972111;28;20076;-78
2023/03/03 12:54:02;;;;;;;12.48;7.40;;;18.80;47.50;;;;;;4980278;28;20192;-78
2023/03/03 12:56:46;;;;;;;13.48;7.85;;;18.90;47.40;;;;;;4995315;28;20030;-79
2023/03/03 12:59:40;;;;;;;14.75;8.20;;;19.00;46.80;;;;;;4985981;28;20648;-79
2023/03/03 13:02:33;;;;;;;11.63;7.35;;;19.00;46.00;;;;;;4995124;28;20146;-79
2023/03/03 13:05:02;;;;;;;11.52;6.90;;;19.00;45.50;;;;;;4996156;28;20153;-79
2023/03/03 13:08:06;;;;;;;12.32;7.05;;;18.90;46.10;;;;;;4999428;28;20045;-79